EmailTwitter


Surface observations / Quebec / CYUL (71627)

Regions: Quebec | Canada | USA | Europe | France | UK | Elsewhere
Station
Display
Info & Location for CYUL (71627) | Help decoding METAR

Weather Conditions observed on 2019/02/16 at 13:00 UTC at MONTREAL INTL A, QB (CYUL)

Sky conditions: few clouds.

Temperature: -3.0 Celsius.

Dewpoint: -7.0 Celsius.

Relative Humidity: 74%

Windchill Factor: -10.

Winds: West at 28 km/h or 15 knots.

Mean Sea level Pressure: 100.83 kilopascals.

Altimeter Setting (QNH): 100.81 kilopascals or 29.77 inches of mercury.

Horizontal visibility: 15.00 statute miles or 24.00 kilometers.

Coded METAR:

CYUL 161300Z 26015KT 15SM FEW025 FEW045 M03/M07 A2977 RMK SC1SC1 SC TR SLP083=